createdAt,value
2023-01-27T00:01:05.571Z,12.03
2023-01-27T00:03:34.229Z,10.80
2023-01-27T00:06:04.097Z,8.68
2023-01-27T00:08:32.345Z,10.88
2023-01-27T00:11:18.951Z,11.38
2023-01-27T00:13:47.179Z,9.98
2023-01-27T00:16:15.500Z,7.92
2023-01-27T00:18:43.705Z,8.08
2023-01-27T00:21:30.040Z,14.45
2023-01-27T00:24:15.859Z,11.28
2023-01-27T00:26:44.146Z,12.60
2023-01-27T00:29:12.361Z,8.90
2023-01-27T00:31:58.511Z,15.28
2023-01-27T00:34:26.803Z,11.35
2023-01-27T00:36:55.103Z,15.35
2023-01-27T00:39:23.323Z,10.82
2023-01-27T00:41:51.539Z,10.95
2023-01-27T00:44:19.769Z,10.32
2023-01-27T00:46:48.014Z,9.93
2023-01-27T00:49:16.233Z,15.05
2023-01-27T00:51:44.826Z,13.10
2023-01-27T00:54:14.188Z,11.90
2023-01-27T00:56:42.431Z,11.48
2023-01-27T00:59:10.705Z,13.43
2023-01-27T01:01:39.559Z,14.83
2023-01-27T01:04:07.804Z,11.90
2023-01-27T01:06:36.030Z,14.40
2023-01-27T01:09:04.259Z,13.43
2023-01-27T01:11:32.483Z,17.20
2023-01-27T01:14:00.696Z,14.78
2023-01-27T01:16:29.020Z,13.60
2023-01-27T01:18:58.375Z,10.63
2023-01-27T01:21:26.671Z,11.88
2023-01-27T01:23:54.962Z,8.38
2023-01-27T01:26:23.431Z,11.88
2023-01-27T01:28:51.635Z,18.20
2023-01-27T01:31:20.970Z,17.45
2023-01-27T01:33:49.411Z,18.15
2023-01-27T01:36:18.790Z,19.12
2023-01-27T01:38:47.184Z,19.02
2023-01-27T01:41:16.863Z,18.05
2023-01-27T01:43:45.175Z,18.17
2023-01-27T01:46:14.060Z,15.95
2023-01-27T01:48:55.820Z,15.32
2023-01-27T01:51:25.657Z,21.23
2023-01-27T01:53:58.369Z,19.60
2023-01-27T01:56:40.017Z,18.62
2023-01-27T01:59:12.439Z,18.32
2023-01-27T02:04:09.690Z,14.95
2023-01-27T02:06:39.505Z,12.65
2023-01-27T02:09:08.303Z,16.25
2023-01-27T02:11:36.528Z,13.80
2023-01-27T02:14:04.732Z,14.70
2023-01-27T02:16:33.574Z,16.02
2023-01-27T02:19:01.910Z,15.32
2023-01-27T02:21:30.533Z,19.37
2023-01-27T02:24:02.300Z,17.67
2023-01-27T02:26:37.937Z,13.90
2023-01-27T02:29:07.753Z,16.02
2023-01-27T02:31:36.180Z,16.87
2023-01-27T02:34:08.903Z,19.23
2023-01-27T02:36:38.652Z,20.05
2023-01-27T02:39:08.465Z,19.07
2023-01-27T02:41:43.980Z,17.87
2023-01-27T02:44:12.755Z,22.20
2023-01-27T02:46:40.986Z,22.20
2023-01-27T02:49:09.182Z,16.87
2023-01-27T02:51:37.427Z,17.12
2023-01-27T02:54:05.800Z,14.87
2023-01-27T02:56:34.091Z,16.05
2023-01-27T02:59:02.321Z,14.50
2023-01-27T03:01:32.355Z,10.35
2023-01-27T03:04:00.595Z,11.20
2023-01-27T03:06:28.846Z,11.40
2023-01-27T03:08:57.162Z,15.35
2023-01-27T03:11:42.970Z,11.75
2023-01-27T03:14:11.275Z,13.20
2023-01-27T03:16:57.440Z,10.45
2023-01-27T03:19:26.623Z,11.70
2023-01-27T03:21:55.982Z,10.63
2023-01-27T03:24:24.342Z,13.93
2023-01-27T03:26:52.592Z,13.10
2023-01-27T03:29:38.510Z,14.43
2023-01-27T03:32:06.738Z,13.40
2023-01-27T03:34:34.969Z,15.00
2023-01-27T03:37:20.714Z,16.60
2023-01-27T03:40:06.593Z,15.48
2023-01-27T03:42:52.695Z,17.23
2023-01-27T03:45:38.597Z,14.73
2023-01-27T03:48:06.893Z,14.78
2023-01-27T03:50:38.258Z,15.60
2023-01-27T03:53:06.923Z,15.93
2023-01-27T03:55:35.814Z,12.55
2023-01-27T03:58:19.515Z,14.35
2023-01-27T04:00:49.338Z,12.58
2023-01-27T04:03:35.480Z,15.38
2023-01-27T04:06:22.964Z,12.55
2023-01-27T04:08:51.196Z,14.68
2023-01-27T04:11:37.186Z,10.48
2023-01-27T04:14:06.169Z,11.68
2023-01-27T04:16:36.527Z,9.98
2023-01-27T04:19:09.344Z,11.30
2023-01-27T04:21:38.614Z,12.55
2023-01-27T04:24:12.243Z,10.80
2023-01-27T04:26:41.644Z,10.65
2023-01-27T04:29:10.208Z,9.23
2023-01-27T04:31:39.062Z,10.10
2023-01-27T04:34:07.898Z,8.33
2023-01-27T04:36:36.454Z,8.93
2023-01-27T04:39:05.045Z,10.43
2023-01-27T04:41:33.580Z,8.70
2023-01-27T04:44:02.594Z,9.90
2023-01-27T04:46:31.065Z,10.75
2023-01-27T04:48:59.563Z,10.58
2023-01-27T04:51:27.954Z,9.50
2023-01-27T04:53:56.321Z,10.55
2023-01-27T04:56:39.592Z,11.08
2023-01-27T04:59:17.445Z,13.20
2023-01-27T05:01:46.097Z,14.78
2023-01-27T05:04:14.611Z,14.80
2023-01-27T05:06:43.158Z,14.98
2023-01-27T05:09:13.785Z,14.70
2023-01-27T05:11:42.358Z,15.93
2023-01-27T05:14:10.890Z,17.02
2023-01-27T05:16:40.061Z,15.68
2023-01-27T05:19:10.090Z,18.48
2023-01-27T05:21:38.878Z,17.57
2023-01-27T05:24:07.657Z,19.55
2023-01-27T05:26:36.191Z,17.67
2023-01-27T05:29:04.746Z,17.73
2023-01-27T05:31:33.493Z,20.17
2023-01-27T05:34:02.352Z,17.15
2023-01-27T05:36:31.470Z,18.60
2023-01-27T05:38:59.993Z,16.02
2023-01-27T05:41:31.000Z,22.07
2023-01-27T05:43:59.591Z,18.70
2023-01-27T05:46:29.788Z,18.45
2023-01-27T05:48:59.527Z,18.02
2023-01-27T05:51:29.257Z,19.67
2023-01-27T05:53:57.574Z,15.90
2023-01-27T05:56:27.526Z,18.82
2023-01-27T05:58:56.589Z,17.00
2023-01-27T06:01:28.636Z,15.93
2023-01-27T06:03:57.489Z,19.90
2023-01-27T06:06:27.772Z,17.70
2023-01-27T06:08:56.493Z,20.37
2023-01-27T06:11:25.571Z,19.73
2023-01-27T06:13:54.820Z,17.95
2023-01-27T06:16:24.398Z,21.25
2023-01-27T06:18:53.123Z,21.45
2023-01-27T06:21:21.815Z,23.95
2023-01-27T06:23:50.501Z,17.02
2023-01-27T06:26:20.117Z,19.87
2023-01-27T06:28:48.913Z,22.42
2023-01-27T06:31:18.775Z,18.17
2023-01-27T06:33:47.501Z,18.98
2023-01-27T06:36:18.611Z,21.25
2023-01-27T06:38:47.470Z,16.82
2023-01-27T06:41:15.769Z,20.35
2023-01-27T06:43:44.403Z,21.30
2023-01-27T06:46:13.330Z,19.70
2023-01-27T06:48:41.864Z,19.32
2023-01-27T06:51:10.704Z,17.10
2023-01-27T06:53:39.247Z,16.20
2023-01-27T06:56:08.135Z,17.55
2023-01-27T06:58:36.727Z,13.72
2023-01-27T07:01:07.095Z,18.23
2023-01-27T07:03:35.776Z,17.67
2023-01-27T07:06:04.387Z,17.62
2023-01-27T07:08:32.939Z,19.40
2023-01-27T07:11:05.022Z,18.70
2023-01-27T07:13:34.778Z,16.77
2023-01-27T07:16:03.019Z,18.87
2023-01-27T07:18:32.053Z,22.75
2023-01-27T07:21:00.592Z,19.87
2023-01-27T07:23:29.145Z,21.20
2023-01-27T07:26:00.061Z,24.70
2023-01-27T07:28:27.915Z,20.05
2023-01-27T07:30:56.499Z,22.70
2023-01-27T07:33:25.055Z,18.50
2023-01-27T07:35:53.314Z,22.52
2023-01-27T07:38:21.594Z,19.85
2023-01-27T07:40:50.093Z,20.77
2023-01-27T07:43:18.366Z,22.75
2023-01-27T07:45:48.314Z,16.67
2023-01-27T07:48:16.530Z,18.37
2023-01-27T07:50:44.721Z,16.07
2023-01-27T07:53:12.970Z,17.05
2023-01-27T07:55:41.178Z,15.70
2023-01-27T07:58:09.684Z,12.88
2023-01-27T08:00:37.930Z,15.75
2023-01-27T08:03:06.339Z,15.80
2023-01-27T08:05:35.534Z,15.43
2023-01-27T08:08:04.322Z,14.85
2023-01-27T08:10:32.669Z,15.43
2023-01-27T08:13:00.953Z,14.65
2023-01-27T08:15:29.188Z,21.55
2023-01-27T08:17:57.756Z,14.58
2023-01-27T08:20:26.618Z,19.17
2023-01-27T08:22:54.879Z,14.20
2023-01-27T08:25:23.104Z,15.80
2023-01-27T08:27:52.860Z,14.83
2023-01-27T08:30:21.509Z,17.37
2023-01-27T08:32:49.732Z,15.85
2023-01-27T08:35:18.163Z,14.33
2023-01-27T08:37:48.421Z,15.18
2023-01-27T08:40:17.193Z,14.15
2023-01-27T08:42:45.438Z,12.30
2023-01-27T08:45:13.841Z,13.62
2023-01-27T08:47:42.126Z,12.07
2023-01-27T08:50:13.717Z,11.57
2023-01-27T08:52:42.223Z,13.48
2023-01-27T08:55:10.551Z,10.75
2023-01-27T08:57:38.841Z,12.40
2023-01-27T09:00:07.844Z,11.93
2023-01-27T09:02:36.229Z,11.55
2023-01-27T09:05:04.962Z,10.23
2023-01-27T09:07:34.070Z,13.62
2023-01-27T09:10:15.932Z,11.38
2023-01-27T09:12:32.411Z,12.03
2023-01-27T09:15:00.622Z,12.63
2023-01-27T09:17:28.926Z,11.43
2023-01-27T09:19:57.166Z,11.90
2023-01-27T09:22:25.464Z,12.85
2023-01-27T09:24:54.022Z,16.07
2023-01-27T09:27:33.474Z,12.58
2023-01-27T09:29:52.150Z,12.68
2023-01-27T09:32:20.364Z,12.03
2023-01-27T09:34:48.664Z,14.18
2023-01-27T09:37:17.000Z,13.65
2023-01-27T09:39:46.751Z,13.88
2023-01-27T09:42:34.591Z,14.65
2023-01-27T09:45:16.380Z,12.60
2023-01-27T09:47:55.162Z,14.28
2023-01-27T09:50:24.943Z,14.58
2023-01-27T09:53:13.952Z,11.78
2023-01-27T09:55:55.738Z,12.60
2023-01-27T09:58:31.585Z,11.60
2023-01-27T10:01:03.994Z,13.18
2023-01-27T10:03:39.645Z,10.72
2023-01-27T10:06:12.361Z,12.37
2023-01-27T10:08:51.051Z,14.03
2023-01-27T10:11:23.710Z,14.30
2023-01-27T10:13:53.455Z,14.23
2023-01-27T10:16:23.298Z,14.23
2023-01-27T10:18:58.799Z,12.93
2023-01-27T10:21:28.553Z,13.25
2023-01-27T10:24:04.616Z,14.70
2023-01-27T10:26:42.702Z,13.55
2023-01-27T10:29:12.427Z,12.80
2023-01-27T10:31:48.165Z,14.40
2023-01-27T10:34:20.579Z,12.85
2023-01-27T10:36:59.338Z,15.08
2023-01-27T10:39:39.768Z,11.88
2023-01-27T10:42:09.650Z,13.32
2023-01-27T10:44:45.097Z,10.82
2023-01-27T10:47:17.823Z,12.15
2023-01-27T10:49:53.633Z,9.70
2023-01-27T10:52:37.228Z,9.65
2023-01-27T10:55:14.659Z,8.23
2023-01-27T10:57:46.310Z,10.13
2023-01-27T11:03:24.005Z,9.28
2023-01-27T11:05:55.732Z,10.63
2023-01-27T11:08:39.223Z,10.37
2023-01-27T11:11:27.825Z,11.70
2023-01-27T11:14:17.386Z,9.78
2023-01-27T11:16:51.831Z,12.07
2023-01-27T11:19:23.525Z,13.08
2023-01-27T11:22:07.170Z,10.63
2023-01-27T11:24:41.073Z,11.00
2023-01-27T11:27:21.493Z,13.25
2023-01-27T11:29:58.958Z,11.88
2023-01-27T11:32:45.483Z,10.13
2023-01-27T11:35:16.240Z,10.63
2023-01-27T11:37:49.955Z,8.30
2023-01-27T11:40:19.674Z,8.80
2023-01-27T11:42:50.096Z,9.43
2023-01-27T11:45:21.197Z,12.63
2023-01-27T11:47:52.816Z,10.32
2023-01-27T11:50:22.115Z,10.15
2023-01-27T11:52:54.379Z,11.10
2023-01-27T11:55:26.338Z,15.45
2023-01-27T11:58:14.708Z,10.55
2023-01-27T12:00:49.373Z,10.53
2023-01-27T12:03:54.009Z,11.20
2023-01-27T12:06:25.706Z,11.43
2023-01-27T12:08:54.233Z,11.70
2023-01-27T12:11:25.308Z,12.15
2023-01-27T12:14:06.788Z,11.93
2023-01-27T12:16:47.649Z,14.13
2023-01-27T12:19:28.449Z,12.88
2023-01-27T12:22:05.803Z,10.53
2023-01-27T12:24:40.430Z,12.18
2023-01-27T12:27:10.179Z,9.25
2023-01-27T12:29:39.958Z,12.93
2023-01-27T12:32:09.724Z,9.63
2023-01-27T12:34:38.101Z,11.20
2023-01-27T12:37:07.841Z,9.33
2023-01-27T12:39:38.658Z,9.88
2023-01-27T12:42:09.163Z,10.48
2023-01-27T12:47:34.634Z,10.00
2023-01-27T12:50:20.898Z,9.63
2023-01-27T12:53:02.364Z,10.00
2023-01-27T12:55:35.154Z,12.53
2023-01-27T12:58:03.947Z,11.55
2023-01-27T13:00:36.654Z,11.22
2023-01-27T13:03:06.783Z,12.75
2023-01-27T13:05:39.507Z,9.98
2023-01-27T13:08:09.247Z,11.97
2023-01-27T13:10:38.777Z,13.43
2023-01-27T13:13:08.529Z,12.78
2023-01-27T13:15:36.855Z,12.80
2023-01-27T13:18:15.726Z,14.40
2023-01-27T13:20:45.183Z,12.47
2023-01-27T13:23:29.974Z,13.05
2023-01-27T13:26:11.551Z,15.05
2023-01-27T13:28:52.827Z,13.40
2023-01-27T13:31:19.983Z,14.00
2023-01-27T13:33:49.766Z,13.95
2023-01-27T13:36:34.305Z,13.08
2023-01-27T13:39:04.073Z,13.08
2023-01-27T13:41:36.048Z,17.82
2023-01-27T13:44:05.924Z,15.80
2023-01-27T13:46:39.214Z,12.07
2023-01-27T13:49:14.966Z,12.00
2023-01-27T13:51:44.735Z,9.88
2023-01-27T13:54:15.423Z,11.10
2023-01-27T13:57:01.687Z,12.37
2023-01-27T13:59:31.926Z,11.00
2023-01-27T14:02:04.339Z,12.43
2023-01-27T14:04:40.275Z,9.05
2023-01-27T14:07:29.239Z,8.93
2023-01-27T14:10:08.150Z,11.30
2023-01-27T14:12:46.112Z,9.00
2023-01-27T14:15:28.277Z,6.70
2023-01-27T14:18:07.014Z,10.93
2023-01-27T14:20:51.682Z,8.85
2023-01-27T14:23:27.589Z,8.33
2023-01-27T14:26:03.763Z,10.23
2023-01-27T14:28:33.663Z,9.50
2023-01-27T14:31:03.641Z,7.80
2023-01-27T14:33:48.385Z,5.95
2023-01-27T14:36:22.862Z,12.35
2023-01-27T14:39:01.590Z,10.53
2023-01-27T14:41:45.388Z,8.58
2023-01-27T14:44:29.965Z,5.00
2023-01-27T14:47:13.731Z,8.23
2023-01-27T14:50:00.418Z,7.15
2023-01-27T14:52:40.038Z,8.23
2023-01-27T14:55:11.843Z,7.28
2023-01-27T14:58:08.801Z,6.40
2023-01-27T15:00:54.576Z,9.70
2023-01-27T15:03:38.006Z,6.28
2023-01-27T15:06:13.416Z,8.50
2023-01-27T15:09:04.264Z,5.67
2023-01-27T15:11:38.438Z,7.92
2023-01-27T15:14:32.579Z,6.80
2023-01-27T15:17:23.435Z,7.67
2023-01-27T15:20:13.133Z,10.32
2023-01-27T15:22:44.968Z,9.15
2023-01-27T15:25:30.143Z,8.00
2023-01-27T15:27:59.174Z,8.88
2023-01-27T15:30:31.574Z,9.40
2023-01-27T15:33:00.186Z,11.05
2023-01-27T15:35:41.441Z,7.17
2023-01-27T15:38:15.971Z,9.35
2023-01-27T15:41:14.280Z,6.87
2023-01-27T15:43:44.064Z,5.97
2023-01-27T15:46:27.481Z,8.03
2023-01-27T15:48:59.999Z,7.22
2023-01-27T15:53:59.998Z,6.12
2023-01-27T15:56:46.666Z,7.25
2023-01-27T15:59:18.481Z,6.20
2023-01-27T16:01:49.211Z,6.10
2023-01-27T16:04:21.158Z,7.22
2023-01-27T16:06:52.792Z,6.05
2023-01-27T16:09:24.437Z,6.80
2023-01-27T16:12:03.404Z,7.50
2023-01-27T16:14:43.347Z,8.25
2023-01-27T16:17:17.781Z,8.68
2023-01-27T16:19:55.339Z,8.90
2023-01-27T16:22:26.752Z,7.85
2023-01-27T16:24:58.721Z,6.17
2023-01-27T16:27:42.136Z,5.55
2023-01-27T16:30:25.738Z,6.80
2023-01-27T16:33:06.547Z,6.20
2023-01-27T16:35:41.234Z,6.00
2023-01-27T16:38:13.382Z,6.67
2023-01-27T16:40:43.919Z,7.33
2023-01-27T16:43:18.343Z,9.63
2023-01-27T16:45:52.823Z,7.85
2023-01-27T16:48:42.478Z,8.38
2023-01-27T16:51:26.153Z,10.40
2023-01-27T16:53:57.825Z,15.78
2023-01-27T16:56:32.626Z,9.93
2023-01-27T16:59:06.633Z,8.30
2023-01-27T17:01:53.106Z,8.73
2023-01-27T17:04:24.810Z,9.25
2023-01-27T17:06:55.968Z,8.70
2023-01-27T17:09:32.237Z,9.10
2023-01-27T17:12:01.096Z,8.43
2023-01-27T17:14:36.147Z,8.63
2023-01-27T17:17:06.832Z,8.73
2023-01-27T17:19:37.358Z,7.97
2023-01-27T17:22:11.711Z,8.65
2023-01-27T17:24:41.435Z,8.43
2023-01-27T17:27:11.157Z,7.25
2023-01-27T17:29:40.968Z,10.20
2023-01-27T17:32:22.809Z,7.97
2023-01-27T17:34:52.384Z,7.03
2023-01-27T17:37:21.552Z,8.90
2023-01-27T17:39:54.280Z,7.40
2023-01-27T17:42:24.230Z,7.50
2023-01-27T17:44:52.452Z,9.30
2023-01-27T17:47:22.031Z,9.10
2023-01-27T17:49:50.512Z,9.68
2023-01-27T17:52:20.524Z,9.25
2023-01-27T17:54:49.740Z,8.60
2023-01-27T17:57:27.153Z,10.80
2023-01-27T17:59:56.902Z,7.78
2023-01-27T18:02:29.500Z,10.50
2023-01-27T18:04:59.607Z,9.98
2023-01-27T18:07:28.325Z,9.20
2023-01-27T18:09:57.275Z,8.73
2023-01-27T18:12:32.902Z,7.33
2023-01-27T18:15:08.676Z,7.22
2023-01-27T18:17:36.976Z,8.25
2023-01-27T18:20:07.133Z,6.65
2023-01-27T18:22:35.664Z,7.58
2023-01-27T18:25:04.169Z,8.63
2023-01-27T18:27:34.765Z,7.20
2023-01-27T18:30:11.195Z,8.08
2023-01-27T18:32:40.986Z,10.35
2023-01-27T18:35:29.606Z,7.95
2023-01-27T18:37:59.766Z,12.37
2023-01-27T18:40:35.185Z,10.32
2023-01-27T18:43:04.283Z,11.22
2023-01-27T18:45:32.535Z,11.05
2023-01-27T18:48:00.895Z,13.72
2023-01-27T18:50:29.267Z,11.03
2023-01-27T18:52:57.495Z,8.08
2023-01-27T18:55:29.477Z,9.73
2023-01-27T18:57:58.828Z,7.35
2023-01-27T19:00:28.447Z,8.73
2023-01-27T19:02:58.842Z,12.80
2023-01-27T19:05:28.776Z,21.12
2023-01-27T19:07:57.351Z,10.08
2023-01-27T19:10:28.013Z,8.58
2023-01-27T19:12:58.811Z,7.70
2023-01-27T19:15:28.611Z,7.87
2023-01-27T19:17:57.773Z,10.38
2023-01-27T19:20:27.593Z,9.85
2023-01-27T19:22:56.550Z,8.73
2023-01-27T19:25:26.517Z,10.82
2023-01-27T19:27:55.527Z,10.03
2023-01-27T19:30:27.612Z,10.05
2023-01-27T19:32:56.564Z,10.20
2023-01-27T19:35:25.533Z,11.83
2023-01-27T19:37:54.754Z,14.40
2023-01-27T19:40:27.072Z,10.60
2023-01-27T19:42:55.516Z,10.98
2023-01-27T19:45:24.189Z,11.50
2023-01-27T19:47:52.752Z,10.50
2023-01-27T19:50:22.864Z,10.63
2023-01-27T19:52:51.045Z,11.48
2023-01-27T19:55:20.540Z,11.73
2023-01-27T19:57:49.101Z,11.73
2023-01-27T20:00:27.967Z,10.75
2023-01-27T20:02:56.522Z,11.18
2023-01-27T20:05:25.942Z,10.85
2023-01-27T20:07:58.332Z,10.80
2023-01-27T20:10:28.055Z,12.15
2023-01-27T20:13:00.474Z,12.25
2023-01-27T20:15:29.631Z,12.13
2023-01-27T20:17:57.842Z,10.68
2023-01-27T20:20:26.822Z,13.20
2023-01-27T20:22:55.180Z,12.37
2023-01-27T20:25:24.772Z,10.78
2023-01-27T20:27:54.319Z,10.60
2023-01-27T20:30:24.135Z,9.88
2023-01-27T20:32:55.001Z,11.63
2023-01-27T20:35:22.467Z,11.93
2023-01-27T20:37:51.418Z,9.50
2023-01-27T20:40:21.249Z,10.70
2023-01-27T20:42:49.738Z,9.60
2023-01-27T20:45:18.343Z,9.73
2023-01-27T20:47:50.197Z,10.30
2023-01-27T20:50:18.986Z,13.83
2023-01-27T20:52:50.296Z,9.38
2023-01-27T20:55:22.285Z,10.05
2023-01-27T20:57:50.562Z,11.57
2023-01-27T21:00:19.742Z,9.10
2023-01-27T21:02:48.731Z,9.33
2023-01-27T21:05:17.385Z,9.33
2023-01-27T21:07:45.951Z,9.33
2023-01-27T21:10:14.341Z,9.15
2023-01-27T21:12:42.843Z,9.70
2023-01-27T21:15:11.652Z,9.43
2023-01-27T21:17:40.184Z,8.78
2023-01-27T21:20:08.909Z,8.98
2023-01-27T21:22:37.385Z,8.30
2023-01-27T21:25:05.818Z,8.23
2023-01-27T21:27:34.240Z,7.50
2023-01-27T21:30:02.513Z,6.92
2023-01-27T21:32:30.896Z,8.68
2023-01-27T21:34:59.579Z,7.35
2023-01-27T21:37:27.988Z,5.12
2023-01-27T21:39:56.226Z,5.65
2023-01-27T21:42:42.022Z,7.50
2023-01-27T21:45:15.995Z,5.58
2023-01-27T21:47:44.833Z,6.72
2023-01-27T21:50:15.520Z,6.83
2023-01-27T21:52:44.732Z,6.83
2023-01-27T21:55:17.365Z,6.33
2023-01-27T21:57:47.248Z,6.90
2023-01-27T22:00:16.899Z,8.10
2023-01-27T22:02:45.229Z,6.55
2023-01-27T22:05:13.741Z,7.12
2023-01-27T22:07:42.212Z,7.53
2023-01-27T22:10:17.692Z,8.65
2023-01-27T22:12:46.184Z,6.20
2023-01-27T22:15:15.570Z,6.53
2023-01-27T22:17:44.799Z,3.10
2023-01-27T22:20:14.180Z,9.93
2023-01-27T22:22:43.166Z,9.68
2023-01-27T22:25:13.799Z,9.48
2023-01-27T22:27:42.768Z,10.85
2023-01-27T22:30:12.782Z,9.95
2023-01-27T22:32:41.405Z,10.48
2023-01-27T22:35:09.748Z,9.90
2023-01-27T22:37:38.227Z,11.50
2023-01-27T22:40:06.823Z,9.63
2023-01-27T22:42:35.106Z,9.85
2023-01-27T22:45:03.537Z,11.30
2023-01-27T22:47:31.718Z,11.15
2023-01-27T22:49:59.947Z,7.97
2023-01-27T22:52:28.195Z,9.23
2023-01-27T22:54:56.550Z,10.30
2023-01-27T22:57:26.488Z,6.97
2023-01-27T22:59:54.855Z,5.90
2023-01-27T23:02:23.218Z,8.10
2023-01-27T23:04:51.753Z,9.88
2023-01-27T23:07:20.020Z,8.60
2023-01-27T23:09:48.343Z,7.75
2023-01-27T23:12:16.912Z,7.50
2023-01-27T23:14:45.221Z,7.65
2023-01-27T23:17:13.477Z,7.33
2023-01-27T23:19:41.859Z,5.33
2023-01-27T23:22:10.266Z,6.72
2023-01-27T23:24:38.530Z,6.70
2023-01-27T23:27:06.807Z,10.50
2023-01-27T23:29:35.102Z,5.80
2023-01-27T23:32:03.418Z,6.87
2023-01-27T23:34:31.633Z,6.45
2023-01-27T23:36:59.946Z,6.30
2023-01-27T23:39:28.271Z,8.33
2023-01-27T23:41:56.626Z,7.70
2023-01-27T23:44:24.823Z,7.28
2023-01-27T23:46:53.100Z,7.17
2023-01-27T23:49:21.435Z,7.92
2023-01-27T23:51:49.671Z,8.10
2023-01-27T23:54:17.910Z,7.67
2023-01-27T23:56:46.215Z,10.40
2023-01-27T23:59:15.043Z,7.50
